Schedule Details

Flight Number: CPX798
Departure: Arturo Merino Benitez International Airport (SCEL) at N/A
Arrival: Miami International Airport (KMIA) at N/A
Route: IKBIX Y183 PEAKY DVALL CURSO5


Current Weather Information
SCEL 180600Z VRB02KT CAVOK 17/13 Q1013 NOSIG
KMIA 180553Z 14006KT 10SM FEW030 SCT050 SCT065 24/24 A3004 RMK AO2 SLP173 T02440239 10250 20239 58002

Route Map